sensor_id;sensor_type;location;lat;lon;timestamp;pressure;altitude;pressure_sealevel;temperature;humidity
70011;BME280;59543;37.950;-122.338;2023-07-20T00:01:29;101403.59;;;19.03;62.86
70011;BME280;59543;37.950;-122.338;2023-07-20T00:03:55;101402.13;;;18.47;65.39
70011;BME280;59543;37.950;-122.338;2023-07-20T00:06:25;101401.22;;;18.70;66.08
70011;BME280;59543;37.950;-122.338;2023-07-20T00:08:56;101392.63;;;18.81;64.87
70011;BME280;59543;37.950;-122.338;2023-07-20T00:11:26;101399.03;;;18.50;65.98
70011;BME280;59543;37.950;-122.338;2023-07-20T00:13:52;101405.63;;;18.18;67.13
70011;BME280;59543;37.950;-122.338;2023-07-20T00:16:19;101411.03;;;17.72;68.28
70011;BME280;59543;37.950;-122.338;2023-07-20T00:18:45;101405.28;;;17.36;69.66
70011;BME280;59543;37.950;-122.338;2023-07-20T00:21:11;101409.94;;;17.50;69.57
70011;BME280;59543;37.950;-122.338;2023-07-20T00:23:38;101403.56;;;17.35;71.52
70011;BME280;59543;37.950;-122.338;2023-07-20T00:26:04;101393.16;;;17.07;73.02
70011;BME280;59543;37.950;-122.338;2023-07-20T00:28:30;101397.09;;;16.97;72.87
70011;BME280;59543;37.950;-122.338;2023-07-20T00:30:56;101386.03;;;17.06;72.33
70011;BME280;59543;37.950;-122.338;2023-07-20T00:33:25;101382.72;;;16.88;74.21
70011;BME280;59543;37.950;-122.338;2023-07-20T00:35:51;101383.34;;;16.90;73.97
70011;BME280;59543;37.950;-122.338;2023-07-20T00:38:17;101386.69;;;17.08;73.89
70011;BME280;59543;37.950;-122.338;2023-07-20T00:40:43;101384.03;;;16.92;73.87
70011;BME280;59543;37.950;-122.338;2023-07-20T00:43:10;101369.31;;;16.62;74.92
70011;BME280;59543;37.950;-122.338;2023-07-20T00:45:36;101377.31;;;16.39;76.26
70011;BME280;59543;37.950;-122.338;2023-07-20T00:48:04;101367.97;;;16.58;76.09
70011;BME280;59543;37.950;-122.338;2023-07-20T00:50:32;101377.28;;;16.63;76.18
70011;BME280;59543;37.950;-122.338;2023-07-20T00:52:59;101372.38;;;16.59;77.09
70011;BME280;59543;37.950;-122.338;2023-07-20T00:55:26;101372.03;;;16.54;77.03
70011;BME280;59543;37.950;-122.338;2023-07-20T00:57:54;101370.16;;;16.79;76.05
70011;BME280;59543;37.950;-122.338;2023-07-20T01:00:20;101371.00;;;16.63;77.09
70011;BME280;59543;37.950;-122.338;2023-07-20T01:02:47;101377.00;;;16.34;77.47
70011;BME280;59543;37.950;-122.338;2023-07-20T01:05:13;101373.91;;;16.61;77.32
70011;BME280;59543;37.950;-122.338;2023-07-20T01:10:44;101384.13;;;16.02;79.18
70011;BME280;59543;37.950;-122.338;2023-07-20T01:13:14;101372.09;;;16.13;79.20
70011;BME280;59543;37.950;-122.338;2023-07-20T01:15:41;101377.00;;;16.34;79.31
70011;BME280;59543;37.950;-122.338;2023-07-20T01:18:07;101374.97;;;16.28;79.99
70011;BME280;59543;37.950;-122.338;2023-07-20T01:20:34;101374.94;;;16.36;79.18
70011;BME280;59543;37.950;-122.338;2023-07-20T01:33:42;101376.66;;;16.29;79.72
70011;BME280;59543;37.950;-122.338;2023-07-20T01:36:08;101372.94;;;16.30;79.78
70011;BME280;59543;37.950;-122.338;2023-07-20T01:38:37;101375.81;;;16.20;79.97
70011;BME280;59543;37.950;-122.338;2023-07-20T01:41:03;101391.25;;;16.03;80.98
70011;BME280;59543;37.950;-122.338;2023-07-20T01:43:31;101388.53;;;16.11;80.36
70011;BME280;59543;37.950;-122.338;2023-07-20T01:45:57;101385.81;;;15.70;81.99
70011;BME280;59543;37.950;-122.338;2023-07-20T01:48:24;101387.06;;;15.42;83.63
70011;BME280;59543;37.950;-122.338;2023-07-20T01:50:50;101392.75;;;15.22;85.19
70011;BME280;59543;37.950;-122.338;2023-07-20T01:53:16;101388.28;;;15.55;84.46
70011;BME280;59543;37.950;-122.338;2023-07-20T01:55:43;101389.44;;;15.45;84.75
70011;BME280;59543;37.950;-122.338;2023-07-20T01:58:09;101392.63;;;15.32;85.68
70011;BME280;59543;37.950;-122.338;2023-07-20T02:00:37;101388.69;;;15.26;86.17
70011;BME280;59543;37.950;-122.338;2023-07-20T02:03:04;101383.09;;;15.28;86.09
70011;BME280;59543;37.950;-122.338;2023-07-20T02:05:30;101386.53;;;14.96;87.76
70011;BME280;59543;37.950;-122.338;2023-07-20T02:07:57;101384.03;;;14.68;89.49
70011;BME280;59543;37.950;-122.338;2023-07-20T02:10:23;101382.38;;;14.75;89.95
70011;BME280;59543;37.950;-122.338;2023-07-20T02:12:49;101389.31;;;14.78;89.61
70011;BME280;59543;37.950;-122.338;2023-07-20T02:15:15;101382.28;;;14.93;89.33
70011;BME280;59543;37.950;-122.338;2023-07-20T02:17:45;101396.31;;;14.89;89.58
70011;BME280;59543;37.950;-122.338;2023-07-20T02:20:11;101382.88;;;14.79;89.49
70011;BME280;59543;37.950;-122.338;2023-07-20T02:22:38;101381.34;;;14.76;90.08
70011;BME280;59543;37.950;-122.338;2023-07-20T02:25:06;101390.63;;;14.48;91.57
70011;BME280;59543;37.950;-122.338;2023-07-20T02:27:36;101385.66;;;14.17;93.12
70011;BME280;59543;37.950;-122.338;2023-07-20T02:30:03;101389.78;;;14.47;92.34
70011;BME280;59543;37.950;-122.338;2023-07-20T02:32:30;101388.19;;;14.18;93.21
70011;BME280;59543;37.950;-122.338;2023-07-20T02:34:57;101390.22;;;14.16;93.71
70011;BME280;59543;37.950;-122.338;2023-07-20T02:37:24;101375.53;;;14.01;94.71
70011;BME280;59543;37.950;-122.338;2023-07-20T02:39:51;101383.81;;;14.00;95.32
70011;BME280;59543;37.950;-122.338;2023-07-20T02:42:17;101383.34;;;13.86;95.72
70011;BME280;59543;37.950;-122.338;2023-07-20T02:44:45;101377.31;;;13.92;96.35
70011;BME280;59543;37.950;-122.338;2023-07-20T02:47:11;101373.09;;;13.72;97.20
70011;BME280;59543;37.950;-122.338;2023-07-20T02:49:37;101370.31;;;13.82;97.36
70011;BME280;59543;37.950;-122.338;2023-07-20T02:52:04;101375.19;;;13.96;96.14
70011;BME280;59543;37.950;-122.338;2023-07-20T02:54:30;101371.78;;;13.76;97.83
70011;BME280;59543;37.950;-122.338;2023-07-20T02:56:57;101376.56;;;13.82;97.72
70011;BME280;59543;37.950;-122.338;2023-07-20T02:59:23;101378.72;;;13.79;98.29
70011;BME280;59543;37.950;-122.338;2023-07-20T03:01:50;101380.59;;;13.78;97.79
70011;BME280;59543;37.950;-122.338;2023-07-20T03:04:16;101378.72;;;13.61;98.56
70011;BME280;59543;37.950;-122.338;2023-07-20T03:06:42;101389.00;;;13.57;98.21
70011;BME280;59543;37.950;-122.338;2023-07-20T03:09:09;101392.38;;;13.59;98.20
70011;BME280;59543;37.950;-122.338;2023-07-20T03:11:35;101385.03;;;13.52;99.15
70011;BME280;59543;37.950;-122.338;2023-07-20T03:14:02;101401.25;;;13.52;99.33
70011;BME280;59543;37.950;-122.338;2023-07-20T03:16:28;101396.06;;;13.40;99.74
70011;BME280;59543;37.950;-122.338;2023-07-20T03:18:54;101393.25;;;13.32;100.00
70011;BME280;59543;37.950;-122.338;2023-07-20T03:21:20;101390.22;;;13.45;99.72
70011;BME280;59543;37.950;-122.338;2023-07-20T03:23:47;101393.38;;;13.40;100.00
70011;BME280;59543;37.950;-122.338;2023-07-20T03:26:13;101394.31;;;13.21;100.00
70011;BME280;59543;37.950;-122.338;2023-07-20T03:28:40;101394.09;;;13.33;100.00
70011;BME280;59543;37.950;-122.338;2023-07-20T03:31:07;101383.41;;;13.41;100.00
70011;BME280;59543;37.950;-122.338;2023-07-20T03:33:34;101399.41;;;13.24;100.00
70011;BME280;59543;37.950;-122.338;2023-07-20T03:36:00;101393.66;;;13.10;100.00
70011;BME280;59543;37.950;-122.338;2023-07-20T03:38:27;101392.19;;;13.15;100.00
70011;BME280;59543;37.950;-122.338;2023-07-20T03:40:57;101396.66;;;13.07;100.00
70011;BME280;59543;37.950;-122.338;2023-07-20T03:43:25;101395.56;;;13.17;100.00
70011;BME280;59543;37.950;-122.338;2023-07-20T03:45:52;101402.00;;;13.16;100.00
70011;BME280;59543;37.950;-122.338;2023-07-20T03:48:21;101409.09;;;13.27;100.00
70011;BME280;59543;37.950;-122.338;2023-07-20T03:50:51;101414.78;;;13.24;100.00
70011;BME280;59543;37.950;-122.338;2023-07-20T03:53:18;101412.91;;;12.97;100.00
70011;BME280;59543;37.950;-122.338;2023-07-20T03:55:46;101410.56;;;13.12;100.00
70011;BME280;59543;37.950;-122.338;2023-07-20T03:58:13;101417.34;;;13.16;100.00
70011;BME280;59543;37.950;-122.338;2023-07-20T04:00:39;101422.47;;;13.19;100.00
70011;BME280;59543;37.950;-122.338;2023-07-20T04:03:06;101417.09;;;13.09;100.00
70011;BME280;59543;37.950;-122.338;2023-07-20T04:05:32;101429.78;;;13.09;100.00
70011;BME280;59543;37.950;-122.338;2023-07-20T04:07:59;101416.53;;;13.05;100.00
70011;BME280;59543;37.950;-122.338;2023-07-20T04:10:25;101417.28;;;12.98;100.00
70011;BME280;59543;37.950;-122.338;2023-07-20T04:12:51;101425.69;;;12.95;100.00
70011;BME280;59543;37.950;-122.338;2023-07-20T04:15:17;101424.69;;;12.96;100.00
70011;BME280;59543;37.950;-122.338;2023-07-20T04:17:45;101427.09;;;12.99;100.00
70011;BME280;59543;37.950;-122.338;2023-07-20T04:20:11;101439.91;;;12.87;100.00
70011;BME280;59543;37.950;-122.338;2023-07-20T04:22:38;101443.03;;;12.92;100.00
70011;BME280;59543;37.950;-122.338;2023-07-20T04:25:05;101442.72;;;12.95;100.00
70011;BME280;59543;37.950;-122.338;2023-07-20T04:27:31;101440.78;;;12.88;100.00
70011;BME280;59543;37.950;-122.338;2023-07-20T04:30:00;101442.72;;;12.95;100.00
70011;BME280;59543;37.950;-122.338;2023-07-20T04:32:27;101444.88;;;12.92;100.00
70011;BME280;59543;37.950;-122.338;2023-07-20T04:34:54;101447.72;;;13.00;100.00
70011;BME280;59543;37.950;-122.338;2023-07-20T04:37:20;101450.53;;;12.98;100.00
70011;BME280;59543;37.950;-122.338;2023-07-20T04:39:46;101450.53;;;12.98;100.00
70011;BME280;59543;37.950;-122.338;2023-07-20T04:42:12;101448.88;;;12.88;100.00
70011;BME280;59543;37.950;-122.338;2023-07-20T04:44:39;101455.56;;;12.84;100.00
70011;BME280;59543;37.950;-122.338;2023-07-20T04:47:05;101448.00;;;12.97;100.00
70011;BME280;59543;37.950;-122.338;2023-07-20T04:49:31;101455.81;;;12.90;100.00
70011;BME280;59543;37.950;-122.338;2023-07-20T04:51:58;101447.13;;;12.96;100.00
70011;BME280;59543;37.950;-122.338;2023-07-20T04:54:24;101453.69;;;12.94;100.00
70011;BME280;59543;37.950;-122.338;2023-07-20T04:56:53;101452.94;;;13.01;100.00
70011;BME280;59543;37.950;-122.338;2023-07-20T04:59:19;101454.34;;;13.05;100.00
70011;BME280;59543;37.950;-122.338;2023-07-20T05:01:46;101444.13;;;13.09;100.00
70011;BME280;59543;37.950;-122.338;2023-07-20T05:04:12;101448.94;;;13.05;100.00
70011;BME280;59543;37.950;-122.338;2023-07-20T05:06:38;101457.31;;;13.12;100.00
70011;BME280;59543;37.950;-122.338;2023-07-20T05:09:05;101450.06;;;13.13;100.00
70011;BME280;59543;37.950;-122.338;2023-07-20T05:11:32;101450.06;;;13.13;100.00
70011;BME280;59543;37.950;-122.338;2023-07-20T05:13:59;101444.41;;;13.06;100.00
70011;BME280;59543;37.950;-122.338;2023-07-20T05:16:26;101450.19;;;13.21;100.00
70011;BME280;59543;37.950;-122.338;2023-07-20T05:18:52;101452.72;;;13.22;100.00
70011;BME280;59543;37.950;-122.338;2023-07-20T05:21:18;101450.50;;;13.18;100.00
70011;BME280;59543;37.950;-122.338;2023-07-20T05:23:45;101443.34;;;13.17;100.00
70011;BME280;59543;37.950;-122.338;2023-07-20T05:26:11;101456.28;;;13.23;100.00
70011;BME280;59543;37.950;-122.338;2023-07-20T05:28:37;101460.03;;;13.12;100.00
70011;BME280;59543;37.950;-122.338;2023-07-20T05:31:03;101455.78;;;13.10;100.00
70011;BME280;59543;37.950;-122.338;2023-07-20T05:33:30;101456.19;;;13.15;100.00
70011;BME280;59543;37.950;-122.338;2023-07-20T05:35:56;101464.47;;;13.03;100.00
70011;BME280;59543;37.950;-122.338;2023-07-20T05:38:22;101466.56;;;13.10;100.00
70011;BME280;59543;37.950;-122.338;2023-07-20T05:40:48;101472.28;;;13.07;100.00
70011;BME280;59543;37.950;-122.338;2023-07-20T05:43:15;101464.75;;;13.00;100.00
70011;BME280;59543;37.950;-122.338;2023-07-20T05:45:44;101466.16;;;13.04;100.00
70011;BME280;59543;37.950;-122.338;2023-07-20T05:48:11;101465.72;;;13.09;100.00
70011;BME280;59543;37.950;-122.338;2023-07-20T05:50:42;101466.88;;;13.07;100.00
70011;BME280;59543;37.950;-122.338;2023-07-20T05:53:11;101465.72;;;13.09;100.00
70011;BME280;59543;37.950;-122.338;2023-07-20T05:55:38;101463.47;;;13.04;100.00
70011;BME280;59543;37.950;-122.338;2023-07-20T05:58:05;101465.44;;;13.12;100.00
70011;BME280;59543;37.950;-122.338;2023-07-20T06:00:32;101462.31;;;13.07;100.00
70011;BME280;59543;37.950;-122.338;2023-07-20T06:02:58;101451.56;;;12.97;100.00
70011;BME280;59543;37.950;-122.338;2023-07-20T06:05:24;101464.03;;;12.98;100.00
70011;BME280;59543;37.950;-122.338;2023-07-20T06:07:50;101462.91;;;13.01;100.00
70011;BME280;59543;37.950;-122.338;2023-07-20T06:10:17;101466.75;;;12.98;100.00
70011;BME280;59543;37.950;-122.338;2023-07-20T06:12:43;101458.06;;;13.04;100.00
70011;BME280;59543;37.950;-122.338;2023-07-20T06:15:28;101462.88;;;13.11;100.00
70011;BME280;59543;37.950;-122.338;2023-07-20T06:17:55;101463.72;;;13.11;100.00
70011;BME280;59543;37.950;-122.338;2023-07-20T06:20:24;101460.88;;;13.13;100.00
70011;BME280;59543;37.950;-122.338;2023-07-20T06:22:50;101452.78;;;13.13;100.00
70011;BME280;59543;37.950;-122.338;2023-07-20T06:25:16;101454.88;;;13.19;100.00
70011;BME280;59543;37.950;-122.338;2023-07-20T06:27:43;101456.88;;;13.17;100.00
70011;BME280;59543;37.950;-122.338;2023-07-20T06:30:10;101456.56;;;13.30;100.00
70011;BME280;59543;37.950;-122.338;2023-07-20T06:32:38;101456.44;;;13.21;100.00
70011;BME280;59543;37.950;-122.338;2023-07-20T06:35:05;101461.13;;;13.19;100.00
70011;BME280;59543;37.950;-122.338;2023-07-20T06:37:32;101467.13;;;13.13;100.00
70011;BME280;59543;37.950;-122.338;2023-07-20T06:39:58;101471.94;;;13.19;100.00
70011;BME280;59543;37.950;-122.338;2023-07-20T06:42:24;101449.34;;;13.11;100.00
70011;BME280;59543;37.950;-122.338;2023-07-20T06:44:51;101457.03;;;13.05;100.00
70011;BME280;59543;37.950;-122.338;2023-07-20T06:47:17;101456.91;;;13.07;100.00
70011;BME280;59543;37.950;-122.338;2023-07-20T06:49:43;101449.47;;;13.19;100.00
70011;BME280;59543;37.950;-122.338;2023-07-20T06:52:09;101455.44;;;13.22;100.00
70011;BME280;59543;37.950;-122.338;2023-07-20T06:54:36;101443.59;;;13.23;100.00
70011;BME280;59543;37.950;-122.338;2023-07-20T06:57:02;101439.22;;;13.22;100.00
70011;BME280;59543;37.950;-122.338;2023-07-20T06:59:28;101446.91;;;13.27;100.00
70011;BME280;59543;37.950;-122.338;2023-07-20T07:01:55;101456.56;;;13.30;100.00
70011;BME280;59543;37.950;-122.338;2023-07-20T07:04:21;101459.13;;;13.31;100.00
70011;BME280;59543;37.950;-122.338;2023-07-20T07:06:48;101458.28;;;13.31;100.00
70011;BME280;59543;37.950;-122.338;2023-07-20T07:09:14;101456.00;;;13.26;100.00
70011;BME280;59543;37.950;-122.338;2023-07-20T07:11:40;101448.03;;;13.24;100.00
70011;BME280;59543;37.950;-122.338;2023-07-20T07:14:06;101455.16;;;13.25;100.00
70011;BME280;59543;37.950;-122.338;2023-07-20T07:16:33;101456.41;;;13.31;100.00
70011;BME280;59543;37.950;-122.338;2023-07-20T07:18:59;101460.97;;;13.31;100.00
70011;BME280;59543;37.950;-122.338;2023-07-20T07:21:25;101471.38;;;13.25;100.00
70011;BME280;59543;37.950;-122.338;2023-07-20T07:23:51;101463.69;;;13.21;100.00
70011;BME280;59543;37.950;-122.338;2023-07-20T07:26:20;101458.41;;;13.29;100.00
70011;BME280;59543;37.950;-122.338;2023-07-20T07:28:47;101461.69;;;13.23;100.00
70011;BME280;59543;37.950;-122.338;2023-07-20T07:31:13;101457.13;;;13.33;100.00
70011;BME280;59543;37.950;-122.338;2023-07-20T07:33:40;101464.78;;;13.38;100.00
70011;BME280;59543;37.950;-122.338;2023-07-20T07:36:06;101458.22;;;13.40;100.00
70011;BME280;59543;37.950;-122.338;2023-07-20T07:38:33;101459.66;;;13.35;100.00
70011;BME280;59543;37.950;-122.338;2023-07-20T07:40:59;101456.47;;;13.49;100.00
70011;BME280;59543;37.950;-122.338;2023-07-20T07:43:26;101466.31;;;13.40;100.00
70011;BME280;59543;37.950;-122.338;2023-07-20T07:45:54;101450.72;;;13.34;100.00
70011;BME280;59543;37.950;-122.338;2023-07-20T07:48:21;101465.06;;;13.35;100.00
70011;BME280;59543;37.950;-122.338;2023-07-20T07:50:48;101468.91;;;13.32;100.00
70011;BME280;59543;37.950;-122.338;2023-07-20T07:53:15;101454.44;;;13.33;100.00
70011;BME280;59543;37.950;-122.338;2023-07-20T07:55:42;101464.88;;;13.46;100.00
70011;BME280;59543;37.950;-122.338;2023-07-20T07:58:08;101463.13;;;13.27;100.00
70011;BME280;59543;37.950;-122.338;2023-07-20T08:00:34;101456.25;;;13.33;100.00
70011;BME280;59543;37.950;-122.338;2023-07-20T08:03:00;101462.53;;;13.33;100.00
70011;BME280;59543;37.950;-122.338;2023-07-20T08:05:26;101463.22;;;13.35;100.00
70011;BME280;59543;37.950;-122.338;2023-07-20T08:07:53;101458.38;;;13.39;100.00
70011;BME280;59543;37.950;-122.338;2023-07-20T08:10:19;101459.13;;;13.31;100.00
70011;BME280;59543;37.950;-122.338;2023-07-20T08:12:45;101451.72;;;13.33;100.00
70011;BME280;59543;37.950;-122.338;2023-07-20T08:15:12;101445.75;;;13.20;100.00
70011;BME280;59543;37.950;-122.338;2023-07-20T08:17:41;101447.78;;;13.18;100.00
70011;BME280;59543;37.950;-122.338;2023-07-20T08:20:09;101446.22;;;13.25;100.00
70011;BME280;59543;37.950;-122.338;2023-07-20T08:22:38;101451.16;;;13.30;100.00
70011;BME280;59543;37.950;-122.338;2023-07-20T08:25:06;101441.06;;;13.22;100.00
70011;BME280;59543;37.950;-122.338;2023-07-20T08:27:32;101453.19;;;13.18;100.00
70011;BME280;59543;37.950;-122.338;2023-07-20T08:29:59;101449.09;;;13.04;100.00
70011;BME280;59543;37.950;-122.338;2023-07-20T08:32:25;101455.19;;;13.16;100.00
70011;BME280;59543;37.950;-122.338;2023-07-20T08:34:52;101448.94;;;13.15;100.00
70011;BME280;59543;37.950;-122.338;2023-07-20T08:37:19;101439.56;;;13.10;100.00
70011;BME280;59543;37.950;-122.338;2023-07-20T08:39:45;101443.69;;;13.04;100.00
70011;BME280;59543;37.950;-122.338;2023-07-20T08:42:12;101435.66;;;12.94;100.00
70011;BME280;59543;37.950;-122.338;2023-07-20T08:44:41;101438.47;;;12.93;100.00
70011;BME280;59543;37.950;-122.338;2023-07-20T08:47:09;101429.94;;;12.97;100.00
70011;BME280;59543;37.950;-122.338;2023-07-20T08:49:37;101432.94;;;12.94;100.00
70011;BME280;59543;37.950;-122.338;2023-07-20T08:52:05;101432.22;;;12.92;100.00
70011;BME280;59543;37.950;-122.338;2023-07-20T08:54:32;101421.00;;;12.87;100.00
70011;BME280;59543;37.950;-122.338;2023-07-20T08:57:04;101436.19;;;12.98;100.00
70011;BME280;59543;37.950;-122.338;2023-07-20T08:59:31;101434.81;;;12.94;100.00
70011;BME280;59543;37.950;-122.338;2023-07-20T09:02:00;101432.22;;;12.92;100.00
70011;BME280;59543;37.950;-122.338;2023-07-20T09:04:30;101428.53;;;12.93;100.00
70011;BME280;59543;37.950;-122.338;2023-07-20T09:06:57;101428.34;;;13.04;100.00
70011;BME280;59543;37.950;-122.338;2023-07-20T09:09:23;101416.31;;;12.89;100.00
70011;BME280;59543;37.950;-122.338;2023-07-20T09:11:50;101423.09;;;13.03;100.00
70011;BME280;59543;37.950;-122.338;2023-07-20T09:14:16;101425.22;;;13.09;100.00
70011;BME280;59543;37.950;-122.338;2023-07-20T09:16:50;101415.81;;;13.13;100.00
70011;BME280;59543;37.950;-122.338;2023-07-20T09:19:17;101422.75;;;13.16;100.00
70011;BME280;59543;37.950;-122.338;2023-07-20T09:21:45;101431.75;;;13.07;100.00
70011;BME280;59543;37.950;-122.338;2023-07-20T09:24:13;101426.91;;;13.10;100.00
70011;BME280;59543;37.950;-122.338;2023-07-20T09:26:42;101427.06;;;13.09;100.00
70011;BME280;59543;37.950;-122.338;2023-07-20T09:29:09;101424.75;;;13.14;100.00
70011;BME280;59543;37.950;-122.338;2023-07-20T09:31:36;101430.97;;;13.24;100.00
70011;BME280;59543;37.950;-122.338;2023-07-20T09:34:03;101432.72;;;13.15;100.00
70011;BME280;59543;37.950;-122.338;2023-07-20T09:36:36;101426.56;;;13.23;100.00
70011;BME280;59543;37.950;-122.338;2023-07-20T09:39:04;101432.72;;;13.15;100.00
70011;BME280;59543;37.950;-122.338;2023-07-20T09:41:40;101423.47;;;13.18;100.00
70011;BME280;59543;37.950;-122.338;2023-07-20T09:44:10;101427.44;;;13.14;100.00
70011;BME280;59543;37.950;-122.338;2023-07-20T09:46:48;101431.72;;;13.16;100.00
70011;BME280;59543;37.950;-122.338;2023-07-20T09:49:17;101428.16;;;13.16;100.00
70011;BME280;59543;37.950;-122.338;2023-07-20T09:51:45;101427.88;;;13.19;100.00
70011;BME280;59543;37.950;-122.338;2023-07-20T09:54:13;101423.94;;;13.03;100.00
70011;BME280;59543;37.950;-122.338;2023-07-20T09:56:41;101420.91;;;13.16;100.00
70011;BME280;59543;37.950;-122.338;2023-07-20T09:59:08;101429.41;;;13.21;100.00
70011;BME280;59543;37.950;-122.338;2023-07-20T10:01:35;101424.88;;;13.22;100.00
70011;BME280;59543;37.950;-122.338;2023-07-20T10:04:04;101418.41;;;13.33;100.00
70011;BME280;59543;37.950;-122.338;2023-07-20T10:06:34;101418.31;;;13.24;100.00
70011;BME280;59543;37.950;-122.338;2023-07-20T10:09:04;101412.91;;;13.24;100.00
70011;BME280;59543;37.950;-122.338;2023-07-20T10:11:35;101418.06;;;13.18;100.00
70011;BME280;59543;37.950;-122.338;2023-07-20T10:14:04;101409.38;;;13.24;100.00
70011;BME280;59543;37.950;-122.338;2023-07-20T10:16:35;101415.75;;;13.23;100.00
70011;BME280;59543;37.950;-122.338;2023-07-20T10:19:31;101417.44;;;13.34;100.00
70011;BME280;59543;37.950;-122.338;2023-07-20T10:22:29;101408.50;;;13.23;100.00
70011;BME280;59543;37.950;-122.338;2023-07-20T10:24:58;101412.66;;;13.27;100.00
70011;BME280;59543;37.950;-122.338;2023-07-20T10:27:26;101410.88;;;13.36;100.00
70011;BME280;59543;37.950;-122.338;2023-07-20T10:29:53;101413.31;;;13.30;100.00
70011;BME280;59543;37.950;-122.338;2023-07-20T10:32:21;101414.03;;;13.32;100.00
70011;BME280;59543;37.950;-122.338;2023-07-20T10:34:51;101413.03;;;13.33;100.00
70011;BME280;59543;37.950;-122.338;2023-07-20T10:38:02;101406.78;;;13.22;100.00
70011;BME280;59543;37.950;-122.338;2023-07-20T10:40:33;101418.28;;;13.34;100.00
70011;BME280;59543;37.950;-122.338;2023-07-20T10:43:07;101413.13;;;13.41;100.00
70011;BME280;59543;37.950;-122.338;2023-07-20T10:45:34;101409.94;;;13.27;100.00
70011;BME280;59543;37.950;-122.338;2023-07-20T10:48:27;101416.72;;;13.32;100.00
70011;BME280;59543;37.950;-122.338;2023-07-20T10:51:13;101409.34;;;13.34;100.00
70011;BME280;59543;37.950;-122.338;2023-07-20T10:53:40;101413.59;;;13.36;100.00
70011;BME280;59543;37.950;-122.338;2023-07-20T10:56:12;101415.59;;;13.24;100.00
70011;BME280;59543;37.950;-122.338;2023-07-20T10:58:40;101415.38;;;13.18;100.00
70011;BME280;59543;37.950;-122.338;2023-07-20T11:01:08;101408.53;;;13.14;100.00
70011;BME280;59543;37.950;-122.338;2023-07-20T11:03:37;101412.38;;;13.11;100.00
70011;BME280;59543;37.950;-122.338;2023-07-20T11:09:08;101409.69;;;13.11;100.00
70011;BME280;59543;37.950;-122.338;2023-07-20T11:11:44;101406.91;;;13.03;100.00
70011;BME280;59543;37.950;-122.338;2023-07-20T11:14:21;101407.69;;;13.13;100.00
70011;BME280;59543;37.950;-122.338;2023-07-20T11:16:49;101407.75;;;13.03;100.00
70011;BME280;59543;37.950;-122.338;2023-07-20T11:19:24;101415.97;;;13.12;100.00
70011;BME280;59543;37.950;-122.338;2023-07-20T11:21:55;101410.69;;;13.10;100.00
70011;BME280;59543;37.950;-122.338;2023-07-20T11:24:22;101406.59;;;13.06;100.00
70011;BME280;59543;37.950;-122.338;2023-07-20T11:26:50;101411.41;;;13.12;100.00
70011;BME280;59543;37.950;-122.338;2023-07-20T11:29:19;101408.53;;;13.14;100.00
70011;BME280;59543;37.950;-122.338;2023-07-20T11:31:46;101405.28;;;13.10;100.00
70011;BME280;59543;37.950;-122.338;2023-07-20T11:34:15;101399.75;;;13.12;100.00
70011;BME280;59543;37.950;-122.338;2023-07-20T11:36:43;101405.41;;;13.18;100.00
70011;BME280;59543;37.950;-122.338;2023-07-20T11:39:11;101401.59;;;13.11;100.00
70011;BME280;59543;37.950;-122.338;2023-07-20T11:41:38;101410.75;;;13.00;100.00
70011;BME280;59543;37.950;-122.338;2023-07-20T11:44:06;101407.56;;;13.15;100.00
70011;BME280;59543;37.950;-122.338;2023-07-20T11:46:34;101407.16;;;13.10;100.00
70011;BME280;59543;37.950;-122.338;2023-07-20T11:49:01;101411.53;;;13.11;100.00
70011;BME280;59543;37.950;-122.338;2023-07-20T11:51:31;101413.50;;;13.18;100.00
70011;BME280;59543;37.950;-122.338;2023-07-20T11:53:58;101401.28;;;13.14;100.00
70011;BME280;59543;37.950;-122.338;2023-07-20T11:56:26;101408.00;;;13.10;100.00
70011;BME280;59543;37.950;-122.338;2023-07-20T11:58:59;101401.25;;;13.24;100.00
70011;BME280;59543;37.950;-122.338;2023-07-20T12:01:28;101409.94;;;13.27;100.00
70011;BME280;59543;37.950;-122.338;2023-07-20T12:03:59;101406.09;;;13.20;100.00
70011;BME280;59543;37.950;-122.338;2023-07-20T12:06:27;101401.16;;;13.16;100.00
70011;BME280;59543;37.950;-122.338;2023-07-20T12:08:58;101401.97;;;13.26;100.00
70011;BME280;59543;37.950;-122.338;2023-07-20T12:11:37;101403.09;;;13.23;100.00
70011;BME280;59543;37.950;-122.338;2023-07-20T12:14:04;101402.25;;;13.23;100.00
70011;BME280;59543;37.950;-122.338;2023-07-20T12:16:30;101411.09;;;13.25;100.00
70011;BME280;59543;37.950;-122.338;2023-07-20T12:19:07;101408.50;;;13.23;100.00
70011;BME280;59543;37.950;-122.338;2023-07-20T12:21:36;101412.16;;;13.32;100.00
70011;BME280;59543;37.950;-122.338;2023-07-20T12:24:03;101414.78;;;13.24;100.00
70011;BME280;59543;37.950;-122.338;2023-07-20T12:26:31;101418.88;;;13.28;100.00
70011;BME280;59543;37.950;-122.338;2023-07-20T12:28:57;101429.56;;;13.20;100.00
70011;BME280;59543;37.950;-122.338;2023-07-20T12:31:24;101429.69;;;13.28;100.00
70011;BME280;59543;37.950;-122.338;2023-07-20T12:33:51;101434.38;;;13.26;100.00